Hurley, NM

7:55 AM MST on February 19, 2017 (GMT -0700)
Grant County

Weather History for KSVC - January, 2014

Change the Weather History Date:

Sunday, January 19, 2014

  Actual Average (KDMN) Record (KDMN)
Temperature  
Mean Temperature 42 °F -  
Max Temperature 59 °F 56 °F 78 °F (2000)
Min Temperature 26 °F 24 °F 11 °F (1963)
Degree Days  
Heating Degree Days 22    
Moisture  
Dew Point 10 °F    
Average Humidity 31    
Maximum Humidity 51    
Minimum Humidity 14    
Precipitation  
Precipitation 0.00 in - - ()
Sea Level Pressure  
Sea Level Pressure 30.30 in    
Wind  
Wind Speed 9 mph (North)    
Max Wind Speed 13 mph    
Max Gust Speed -    
Visibility 10 miles    
Events Thunderstorm    
Averages and records for this station are not official NWS values.
T = Trace of Precipitation, MM = Missing Value Source: NWS Daily Summary

Daily Weather History Graph

Daily Weather History Graph

Search for Another Location

Airport or City:

Trip Planner

Search our weather history database for the weather conditions in past years. The results will help you decide how hot, cold, wet, or windy it might be!

Date:

Astronomy

Jan. 19, 2014 Rise Set
Actual Time 7:13 AM MST 5:33 PM MST
Civil Twilight 6:47 AM MST 5:59 PM MST
Nautical Twilight 6:17 AM MST 6:29 PM MST
Astronomical Twilight 5:47 AM MST 6:59 PM MST
Moon 8:59 PM MST 8:58 AM MST
Length of Visible Light 11h 12m
Length of Day
10h 19m
Waning Gibbous, 89% of the Moon is Illuminated
Jan 19
Waning Gibbous
Jan 23
Last Quarter
Jan 30
New
Feb 6
First Quarter
Feb 14
Full

Hourly Weather History & Observations

Time (MST) Temp. Windchill Dew Point Humidity Pressure Visibility Wind Dir Wind Speed Gust Speed Precip Events Conditions
12:15 AM 32.0 °F 23.6 °F 8.6 °F 38% 30.32 in 10.0 mi North 10.4 mph - N/A   Clear
12:35 AM 32.0 °F 24.2 °F 8.6 °F 38% 30.32 in 10.0 mi North 9.2 mph - N/A   Clear
12:55 AM 32.0 °F 24.2 °F 8.6 °F 38% 30.32 in 10.0 mi North 9.2 mph - N/A   Clear
1:15 AM 32.0 °F 23.6 °F 8.6 °F 38% 30.32 in 10.0 mi North 10.4 mph - N/A   Clear
1:35 AM 28.4 °F 19.1 °F 8.6 °F 43% 30.33 in 10.0 mi North 10.4 mph - N/A   Clear
1:55 AM 28.4 °F 20.4 °F 10.4 °F 47% 30.33 in 10.0 mi North 8.1 mph - N/A   Clear
2:15 AM 28.4 °F 20.4 °F 10.4 °F 47% 30.33 in 10.0 mi North 8.1 mph - N/A   Clear
2:35 AM 28.4 °F 19.7 °F 10.4 °F 47% 30.33 in 10.0 mi North 9.2 mph - N/A   Clear
2:55 AM 28.4 °F 19.7 °F 10.4 °F 47% 30.34 in 10.0 mi North 9.2 mph - N/A   Clear
3:15 AM 26.6 °F 16.8 °F 10.4 °F 51% 30.34 in 10.0 mi North 10.4 mph - N/A   Clear
3:35 AM 32.0 °F 23.6 °F 8.6 °F 38% 30.33 in 10.0 mi NNE 10.4 mph - N/A   Clear
3:55 AM 32.0 °F 23.0 °F 10.4 °F 41% 30.33 in 10.0 mi North 11.5 mph - N/A   Clear
4:15 AM 32.0 °F 23.6 °F 10.4 °F 41% 30.33 in 10.0 mi North 10.4 mph - N/A   Clear
4:35 AM 28.4 °F 19.1 °F 10.4 °F 47% 30.33 in 10.0 mi North 10.4 mph - N/A Thunderstorm Clear
4:55 AM 30.2 °F 21.3 °F 10.4 °F 44% 30.32 in 10.0 mi North 10.4 mph - N/A   Clear
5:15 AM 28.4 °F 19.7 °F 10.4 °F 47% 30.33 in 10.0 mi NNE 9.2 mph - N/A   Clear
5:35 AM 30.2 °F 21.9 °F 10.4 °F 44% 30.33 in 10.0 mi NNE 9.2 mph - N/A   Clear
5:55 AM 28.4 °F 20.4 °F 10.4 °F 47% 30.34 in 10.0 mi North 8.1 mph - N/A   Clear
6:15 AM 26.6 °F 17.5 °F 10.4 °F 51% 30.35 in 10.0 mi North 9.2 mph - N/A   Clear
6:35 AM 28.4 °F 18.5 °F 10.4 °F 47% 30.35 in 10.0 mi North 11.5 mph - N/A   Clear
6:55 AM 28.4 °F 19.1 °F 10.4 °F 47% 30.35 in 10.0 mi North 10.4 mph - N/A   Clear
7:15 AM 28.4 °F 18.5 °F 10.4 °F 47% 30.35 in 10.0 mi North 11.5 mph - N/A   Clear
7:35 AM 28.4 °F 19.1 °F 10.4 °F 47% 30.35 in 10.0 mi North 10.4 mph - N/A   Clear
7:55 AM 32.0 °F 24.2 °F 10.4 °F 41% 30.35 in 10.0 mi North 9.2 mph - N/A   Clear
8:15 AM 35.6 °F 28.6 °F 12.2 °F 38% 30.35 in 10.0 mi North 9.2 mph - N/A   Clear
8:35 AM 39.2 °F 33.6 °F 14.0 °F 36% 30.36 in 10.0 mi North 8.1 mph - N/A   Clear
8:55 AM 44.6 °F 42.2 °F 14.0 °F 29% 30.36 in 10.0 mi NNE 4.6 mph - N/A   Clear
9:15 AM 48.2 °F - 12.2 °F 24% 30.37 in 10.0 mi East 4.6 mph - N/A   Clear
9:35 AM 50.0 °F - 10.4 °F 20% 30.37 in 10.0 mi Calm Calm - N/A   Clear
9:55 AM 50.0 °F - 12.2 °F 22% 30.38 in 10.0 mi SSW 3.5 mph - N/A   Clear
10:15 AM 51.8 °F - 12.2 °F 21% 30.38 in 10.0 mi South 4.6 mph - N/A   Clear
10:35 AM 51.8 °F - 10.4 °F 19% 30.37 in 10.0 mi SE 3.5 mph - N/A   Clear
10:55 AM 53.6 °F - 12.2 °F 19% 30.37 in 10.0 mi SSE 6.9 mph - N/A   Clear
11:15 AM 53.6 °F - 10.4 °F 18% 30.36 in 10.0 mi South 5.8 mph - N/A   Clear
11:35 AM 55.4 °F - 12.2 °F 18% 30.35 in 10.0 mi South 6.9 mph - N/A   Clear
11:55 AM 55.4 °F - 12.2 °F 18% 30.34 in 10.0 mi South 6.9 mph - N/A   Clear
12:15 PM 57.2 °F - 12.2 °F 17% 30.32 in 10.0 mi SSE 3.5 mph - N/A   Clear
12:35 PM 55.4 °F - 10.4 °F 17% 30.30 in 10.0 mi SSE 5.8 mph - N/A   Clear
12:55 PM 57.2 °F - 10.4 °F 16% 30.29 in 10.0 mi South 6.9 mph - N/A   Clear
1:15 PM 55.4 °F - 10.4 °F 17% 30.27 in 10.0 mi South 4.6 mph - N/A   Clear
1:35 PM 55.4 °F - 10.4 °F 17% 30.27 in 10.0 mi SSW 5.8 mph - N/A   Clear
1:55 PM 57.2 °F - 10.4 °F 16% 30.26 in 10.0 mi SW 3.5 mph - N/A   Clear
2:15 PM 57.2 °F - 10.4 °F 16% 30.25 in 10.0 mi SE 3.5 mph - N/A   Clear
2:35 PM 59.0 °F - 10.4 °F 15% 30.25 in 10.0 mi SSE 6.9 mph - N/A   Clear
2:55 PM 57.2 °F - 10.4 °F 16% 30.24 in 10.0 mi Calm Calm - N/A   Clear
3:15 PM 57.2 °F - 8.6 °F 14% 30.24 in 10.0 mi SW 4.6 mph - N/A   Clear
3:35 PM 57.2 °F - 8.6 °F 14% 30.24 in 10.0 mi South 8.1 mph - N/A   Clear
3:55 PM 57.2 °F - 10.4 °F 16% 30.25 in 10.0 mi South 8.1 mph - N/A   Clear
4:15 PM 57.2 °F - 8.6 °F 14% 30.24 in 10.0 mi South 8.1 mph - N/A   Clear
4:35 PM 57.2 °F - 10.4 °F 16% 30.25 in 10.0 mi South 8.1 mph - N/A   Clear
4:55 PM 57.2 °F - 8.6 °F 14% 30.24 in 10.0 mi SW 6.9 mph - N/A   Clear
5:15 PM 55.4 °F - 10.4 °F 17% 30.24 in 10.0 mi SW 4.6 mph - N/A   Clear
5:55 PM 50.0 °F - 8.6 °F 19% 30.24 in 10.0 mi SSW 4.6 mph - N/A   Clear
6:15 PM 48.2 °F - 8.6 °F 20% 30.24 in 10.0 mi Calm Calm - N/A   Clear
6:35 PM 37.4 °F 34.9 °F 6.8 °F 28% 30.24 in 10.0 mi NW 3.5 mph - N/A   Clear
6:55 PM 41.0 °F 36.4 °F 8.6 °F 26% 30.24 in 10.0 mi North 6.9 mph - N/A   Clear
7:15 PM 39.2 °F 32.0 °F 8.6 °F 28% 30.24 in 10.0 mi NNW 11.5 mph - N/A   Clear
7:35 PM 35.6 °F 28.6 °F 8.6 °F 33% 30.24 in 10.0 mi North 9.2 mph - N/A   Clear
7:55 PM 37.4 °F 29.3 °F 8.6 °F 30% 30.24 in 10.0 mi North 12.7 mph - N/A   Clear
8:15 PM 35.6 °F 27.5 °F 10.4 °F 35% 30.24 in 10.0 mi North 11.5 mph - N/A   Clear
8:35 PM 35.6 °F 28.6 °F 10.4 °F 35% 30.25 in 10.0 mi North 9.2 mph - N/A   Clear
8:55 PM 32.0 °F 23.6 °F 10.4 °F 41% 30.25 in 10.0 mi NNW 10.4 mph - N/A   Clear
9:15 PM 32.0 °F 23.6 °F 10.4 °F 41% 30.25 in 10.0 mi NNW 10.4 mph - N/A Thunderstorm Clear
9:35 PM 32.0 °F 23.6 °F 10.4 °F 41% 30.25 in 10.0 mi North 10.4 mph - N/A   Clear
9:55 PM 32.0 °F 23.0 °F 10.4 °F 41% 30.25 in 10.0 mi North 11.5 mph - N/A   Clear
10:15 PM 35.6 °F 29.2 °F 10.4 °F 35% 30.25 in 10.0 mi NNW 8.1 mph - N/A   Clear
10:35 PM 32.0 °F 24.8 °F 10.4 °F 41% 30.25 in 10.0 mi NNW 8.1 mph - N/A   Clear
10:55 PM 32.0 °F 23.6 °F 10.4 °F 41% 30.24 in 10.0 mi North 10.4 mph - N/A   Clear
11:15 PM 37.4 °F 29.8 °F 10.4 °F 33% 30.23 in 10.0 mi North 11.5 mph - N/A   Clear
11:35 PM 37.4 °F 29.3 °F 10.4 °F 33% 30.23 in 10.0 mi North 12.7 mph - N/A   Clear
11:55 PM 39.2 °F 32.5 °F 10.4 °F 31% 30.22 in 10.0 mi NNW 10.4 mph - N/A Thunderstorm Clear